sensor_id;sensor_type;location;lat;lon;timestamp;P1;durP1;ratioP1;P2;durP2;ratioP2
78298;SDS011;67556;55.656;12.590;2023-04-21T00:02:18;6.05;;;4.05;;
78298;SDS011;67556;55.656;12.590;2023-04-21T00:04:45;5.20;;;3.67;;
78298;SDS011;67556;55.656;12.590;2023-04-21T00:07:14;4.70;;;3.38;;
78298;SDS011;67556;55.656;12.590;2023-04-21T00:09:59;4.75;;;3.83;;
78298;SDS011;67556;55.656;12.590;2023-04-21T00:12:28;6.68;;;3.67;;
78298;SDS011;67556;55.656;12.590;2023-04-21T00:14:55;4.38;;;3.47;;
78298;SDS011;67556;55.656;12.590;2023-04-21T00:17:31;5.53;;;4.13;;
78298;SDS011;67556;55.656;12.590;2023-04-21T00:20:06;4.30;;;3.58;;
78298;SDS011;67556;55.656;12.590;2023-04-21T00:22:42;6.10;;;4.18;;
78298;SDS011;67556;55.656;12.590;2023-04-21T00:25:09;5.30;;;3.53;;
78298;SDS011;67556;55.656;12.590;2023-04-21T00:27:43;5.15;;;3.90;;
78298;SDS011;67556;55.656;12.590;2023-04-21T00:30:11;4.28;;;3.70;;
78298;SDS011;67556;55.656;12.590;2023-04-21T00:32:40;5.50;;;3.67;;
78298;SDS011;67556;55.656;12.590;2023-04-21T00:35:25;5.10;;;3.47;;
78298;SDS011;67556;55.656;12.590;2023-04-21T00:37:53;5.60;;;3.53;;
78298;SDS011;67556;55.656;12.590;2023-04-21T00:40:21;4.10;;;3.35;;
78298;SDS011;67556;55.656;12.590;2023-04-21T00:42:50;6.20;;;3.60;;
78298;SDS011;67556;55.656;12.590;2023-04-21T00:45:16;4.65;;;3.58;;
78298;SDS011;67556;55.656;12.590;2023-04-21T00:47:49;4.10;;;3.70;;
78298;SDS011;67556;55.656;12.590;2023-04-21T00:50:16;4.25;;;3.35;;
78298;SDS011;67556;55.656;12.590;2023-04-21T00:52:44;4.90;;;3.40;;
78298;SDS011;67556;55.656;12.590;2023-04-21T00:55:17;3.83;;;3.42;;
78298;SDS011;67556;55.656;12.590;2023-04-21T00:57:44;5.28;;;3.70;;
78298;SDS011;67556;55.656;12.590;2023-04-21T01:00:20;4.57;;;3.42;;
78298;SDS011;67556;55.656;12.590;2023-04-21T01:02:48;5.05;;;4.05;;
78298;SDS011;67556;55.656;12.590;2023-04-21T01:05:15;5.22;;;4.13;;
78298;SDS011;67556;55.656;12.590;2023-04-21T01:07:43;5.90;;;3.95;;
78298;SDS011;67556;55.656;12.590;2023-04-21T01:10:12;5.28;;;3.65;;
78298;SDS011;67556;55.656;12.590;2023-04-21T01:12:41;4.60;;;3.55;;
78298;SDS011;67556;55.656;12.590;2023-04-21T01:15:10;6.03;;;4.35;;
78298;SDS011;67556;55.656;12.590;2023-04-21T01:17:41;5.68;;;3.78;;
78298;SDS011;67556;55.656;12.590;2023-04-21T01:20:10;6.35;;;3.33;;
78298;SDS011;67556;55.656;12.590;2023-04-21T01:22:39;4.32;;;3.30;;
78298;SDS011;67556;55.656;12.590;2023-04-21T01:25:16;4.50;;;3.55;;
78298;SDS011;67556;55.656;12.590;2023-04-21T01:27:47;6.50;;;3.45;;
78298;SDS011;67556;55.656;12.590;2023-04-21T01:30:22;5.40;;;3.40;;
78298;SDS011;67556;55.656;12.590;2023-04-21T01:32:54;3.72;;;3.20;;
78298;SDS011;67556;55.656;12.590;2023-04-21T01:35:29;4.45;;;3.10;;
78298;SDS011;67556;55.656;12.590;2023-04-21T01:37:57;4.60;;;3.25;;
78298;SDS011;67556;55.656;12.590;2023-04-21T01:40:25;5.05;;;3.40;;
78298;SDS011;67556;55.656;12.590;2023-04-21T01:43:13;4.47;;;3.53;;
78298;SDS011;67556;55.656;12.590;2023-04-21T01:45:40;5.18;;;3.30;;
78298;SDS011;67556;55.656;12.590;2023-04-21T01:48:14;3.90;;;3.50;;
78298;SDS011;67556;55.656;12.590;2023-04-21T01:50:41;4.90;;;3.10;;
78298;SDS011;67556;55.656;12.590;2023-04-21T01:53:10;5.32;;;3.30;;
78298;SDS011;67556;55.656;12.590;2023-04-21T01:55:39;4.93;;;3.30;;
78298;SDS011;67556;55.656;12.590;2023-04-21T01:58:06;5.55;;;3.70;;
78298;SDS011;67556;55.656;12.590;2023-04-21T02:00:33;4.53;;;3.50;;
78298;SDS011;67556;55.656;12.590;2023-04-21T02:03:16;5.93;;;3.45;;
78298;SDS011;67556;55.656;12.590;2023-04-21T02:05:42;4.53;;;3.72;;
78298;SDS011;67556;55.656;12.590;2023-04-21T02:08:10;3.53;;;3.15;;
78298;SDS011;67556;55.656;12.590;2023-04-21T02:10:38;3.85;;;3.25;;
78298;SDS011;67556;55.656;12.590;2023-04-21T02:13:17;4.55;;;3.30;;
78298;SDS011;67556;55.656;12.590;2023-04-21T02:15:49;4.90;;;3.28;;
78298;SDS011;67556;55.656;12.590;2023-04-21T02:18:17;3.80;;;3.20;;
78298;SDS011;67556;55.656;12.590;2023-04-21T02:20:50;4.65;;;3.40;;
78298;SDS011;67556;55.656;12.590;2023-04-21T02:23:32;4.95;;;2.95;;
78298;SDS011;67556;55.656;12.590;2023-04-21T02:28:42;4.15;;;3.50;;
78298;SDS011;67556;55.656;12.590;2023-04-21T02:31:11;5.05;;;3.40;;
78298;SDS011;67556;55.656;12.590;2023-04-21T02:33:39;5.25;;;3.03;;
78298;SDS011;67556;55.656;12.590;2023-04-21T02:36:17;4.18;;;3.40;;
78298;SDS011;67556;55.656;12.590;2023-04-21T02:38:47;4.65;;;3.42;;
78298;SDS011;67556;55.656;12.590;2023-04-21T02:41:15;4.22;;;2.83;;
78298;SDS011;67556;55.656;12.590;2023-04-21T02:43:48;4.40;;;3.08;;
78298;SDS011;67556;55.656;12.590;2023-04-21T02:46:15;4.57;;;3.33;;
78298;SDS011;67556;55.656;12.590;2023-04-21T02:48:47;4.35;;;3.05;;
78298;SDS011;67556;55.656;12.590;2023-04-21T02:51:15;3.97;;;3.03;;
78298;SDS011;67556;55.656;12.590;2023-04-21T02:53:42;4.10;;;3.30;;
78298;SDS011;67556;55.656;12.590;2023-04-21T02:56:10;5.03;;;3.28;;
78298;SDS011;67556;55.656;12.590;2023-04-21T02:58:55;5.25;;;3.38;;
78298;SDS011;67556;55.656;12.590;2023-04-21T03:01:22;3.53;;;3.03;;
78298;SDS011;67556;55.656;12.590;2023-04-21T03:03:48;4.22;;;3.63;;
78298;SDS011;67556;55.656;12.590;2023-04-21T03:06:16;4.13;;;3.42;;
78298;SDS011;67556;55.656;12.590;2023-04-21T03:08:49;4.55;;;3.28;;
78298;SDS011;67556;55.656;12.590;2023-04-21T03:11:19;3.80;;;2.90;;
78298;SDS011;67556;55.656;12.590;2023-04-21T03:13:46;4.57;;;3.20;;
78298;SDS011;67556;55.656;12.590;2023-04-21T03:16:15;3.80;;;3.30;;
78298;SDS011;67556;55.656;12.590;2023-04-21T03:18:41;5.05;;;3.15;;
78298;SDS011;67556;55.656;12.590;2023-04-21T03:21:16;4.95;;;3.80;;
78298;SDS011;67556;55.656;12.590;2023-04-21T03:23:44;3.97;;;3.13;;
78298;SDS011;67556;55.656;12.590;2023-04-21T03:26:20;3.88;;;3.28;;
78298;SDS011;67556;55.656;12.590;2023-04-21T03:28:48;6.45;;;3.50;;
78298;SDS011;67556;55.656;12.590;2023-04-21T03:31:16;5.93;;;4.00;;
78298;SDS011;67556;55.656;12.590;2023-04-21T03:33:42;5.63;;;3.40;;
78298;SDS011;67556;55.656;12.590;2023-04-21T03:36:11;3.80;;;3.08;;
78298;SDS011;67556;55.656;12.590;2023-04-21T03:38:55;4.75;;;3.92;;
78298;SDS011;67556;55.656;12.590;2023-04-21T03:41:26;6.47;;;3.85;;
78298;SDS011;67556;55.656;12.590;2023-04-21T03:43:59;6.40;;;3.47;;
78298;SDS011;67556;55.656;12.590;2023-04-21T03:46:26;4.43;;;3.40;;
78298;SDS011;67556;55.656;12.590;2023-04-21T03:48:53;5.60;;;3.90;;
78298;SDS011;67556;55.656;12.590;2023-04-21T03:51:20;4.70;;;3.78;;
78298;SDS011;67556;55.656;12.590;2023-04-21T03:53:49;5.03;;;3.83;;
78298;SDS011;67556;55.656;12.590;2023-04-21T03:56:16;5.28;;;3.72;;
78298;SDS011;67556;55.656;12.590;2023-04-21T03:58:44;6.47;;;4.68;;
78298;SDS011;67556;55.656;12.590;2023-04-21T04:01:17;7.10;;;3.60;;
78298;SDS011;67556;55.656;12.590;2023-04-21T04:03:44;3.45;;;2.88;;
78298;SDS011;67556;55.656;12.590;2023-04-21T04:06:12;6.28;;;3.78;;
78298;SDS011;67556;55.656;12.590;2023-04-21T04:08:40;4.78;;;3.72;;
78298;SDS011;67556;55.656;12.590;2023-04-21T04:11:07;4.68;;;3.50;;
78298;SDS011;67556;55.656;12.590;2023-04-21T04:13:35;5.65;;;3.15;;
78298;SDS011;67556;55.656;12.590;2023-04-21T04:16:16;6.13;;;3.40;;
78298;SDS011;67556;55.656;12.590;2023-04-21T04:18:48;5.47;;;3.30;;
78298;SDS011;67556;55.656;12.590;2023-04-21T04:21:15;7.57;;;3.50;;
78298;SDS011;67556;55.656;12.590;2023-04-21T04:23:44;3.92;;;3.55;;
78298;SDS011;67556;55.656;12.590;2023-04-21T04:26:13;4.88;;;3.15;;
78298;SDS011;67556;55.656;12.590;2023-04-21T04:28:42;3.95;;;3.08;;
78298;SDS011;67556;55.656;12.590;2023-04-21T04:31:10;5.28;;;3.40;;
78298;SDS011;67556;55.656;12.590;2023-04-21T04:33:40;4.00;;;3.33;;
78298;SDS011;67556;55.656;12.590;2023-04-21T04:36:25;3.60;;;3.17;;
78298;SDS011;67556;55.656;12.590;2023-04-21T04:39:06;4.45;;;3.47;;
78298;SDS011;67556;55.656;12.590;2023-04-21T04:41:41;6.53;;;3.80;;
78298;SDS011;67556;55.656;12.590;2023-04-21T04:44:15;4.63;;;3.40;;
78298;SDS011;67556;55.656;12.590;2023-04-21T04:46:42;5.15;;;3.40;;
78298;SDS011;67556;55.656;12.590;2023-04-21T04:49:29;7.78;;;3.80;;
78298;SDS011;67556;55.656;12.590;2023-04-21T04:52:02;6.25;;;3.95;;
78298;SDS011;67556;55.656;12.590;2023-04-21T04:54:37;5.57;;;4.00;;
78298;SDS011;67556;55.656;12.590;2023-04-21T04:57:10;13.27;;;3.55;;
78298;SDS011;67556;55.656;12.590;2023-04-21T04:59:45;4.97;;;3.53;;
78298;SDS011;67556;55.656;12.590;2023-04-21T05:02:14;5.82;;;4.00;;
78298;SDS011;67556;55.656;12.590;2023-04-21T05:04:42;4.90;;;3.92;;
78298;SDS011;67556;55.656;12.590;2023-04-21T05:07:08;7.72;;;4.00;;
78298;SDS011;67556;55.656;12.590;2023-04-21T05:09:36;3.95;;;3.55;;
78298;SDS011;67556;55.656;12.590;2023-04-21T05:12:04;5.47;;;3.85;;
78298;SDS011;67556;55.656;12.590;2023-04-21T05:14:30;6.22;;;4.15;;
78298;SDS011;67556;55.656;12.590;2023-04-21T05:17:00;5.80;;;3.70;;
78298;SDS011;67556;55.656;12.590;2023-04-21T05:19:34;5.00;;;3.35;;
78298;SDS011;67556;55.656;12.590;2023-04-21T05:22:02;5.18;;;3.50;;
78298;SDS011;67556;55.656;12.590;2023-04-21T05:24:30;4.93;;;4.00;;
78298;SDS011;67556;55.656;12.590;2023-04-21T05:26:59;4.93;;;4.15;;
78298;SDS011;67556;55.656;12.590;2023-04-21T05:29:32;4.47;;;3.65;;
78298;SDS011;67556;55.656;12.590;2023-04-21T05:32:01;7.40;;;3.83;;
78298;SDS011;67556;55.656;12.590;2023-04-21T05:34:29;5.03;;;3.55;;
78298;SDS011;67556;55.656;12.590;2023-04-21T05:36:57;9.20;;;3.83;;
78298;SDS011;67556;55.656;12.590;2023-04-21T05:39:25;4.50;;;3.42;;
78298;SDS011;67556;55.656;12.590;2023-04-21T05:41:53;4.47;;;3.83;;
78298;SDS011;67556;55.656;12.590;2023-04-21T05:44:21;4.53;;;3.88;;
78298;SDS011;67556;55.656;12.590;2023-04-21T05:46:49;6.70;;;3.67;;
78298;SDS011;67556;55.656;12.590;2023-04-21T05:49:15;7.85;;;3.90;;
78298;SDS011;67556;55.656;12.590;2023-04-21T05:51:42;5.07;;;3.70;;
78298;SDS011;67556;55.656;12.590;2023-04-21T05:54:09;6.00;;;3.88;;
78298;SDS011;67556;55.656;12.590;2023-04-21T05:56:37;4.95;;;4.05;;
78298;SDS011;67556;55.656;12.590;2023-04-21T05:59:11;5.65;;;3.80;;
78298;SDS011;67556;55.656;12.590;2023-04-21T06:01:38;4.95;;;4.03;;
78298;SDS011;67556;55.656;12.590;2023-04-21T06:04:05;5.75;;;4.18;;
78298;SDS011;67556;55.656;12.590;2023-04-21T06:06:38;4.97;;;3.83;;
78298;SDS011;67556;55.656;12.590;2023-04-21T06:09:05;6.95;;;4.35;;
78298;SDS011;67556;55.656;12.590;2023-04-21T06:11:33;11.75;;;7.40;;
78298;SDS011;67556;55.656;12.590;2023-04-21T06:14:01;5.65;;;4.13;;
78298;SDS011;67556;55.656;12.590;2023-04-21T06:16:29;7.57;;;4.15;;
78298;SDS011;67556;55.656;12.590;2023-04-21T06:18:58;6.05;;;4.30;;
78298;SDS011;67556;55.656;12.590;2023-04-21T06:21:26;4.32;;;3.72;;
78298;SDS011;67556;55.656;12.590;2023-04-21T06:23:54;6.00;;;3.90;;
78298;SDS011;67556;55.656;12.590;2023-04-21T06:26:27;7.05;;;4.32;;
78298;SDS011;67556;55.656;12.590;2023-04-21T06:29:02;5.75;;;3.88;;
78298;SDS011;67556;55.656;12.590;2023-04-21T06:31:28;6.32;;;4.15;;
78298;SDS011;67556;55.656;12.590;2023-04-21T06:33:57;6.93;;;4.50;;
78298;SDS011;67556;55.656;12.590;2023-04-21T06:36:29;6.50;;;4.22;;
78298;SDS011;67556;55.656;12.590;2023-04-21T06:38:56;5.20;;;4.30;;
78298;SDS011;67556;55.656;12.590;2023-04-21T06:41:25;5.05;;;3.72;;
78298;SDS011;67556;55.656;12.590;2023-04-21T06:43:51;4.50;;;3.70;;
78298;SDS011;67556;55.656;12.590;2023-04-21T06:46:21;5.10;;;4.05;;
78298;SDS011;67556;55.656;12.590;2023-04-21T06:48:47;6.13;;;4.20;;
78298;SDS011;67556;55.656;12.590;2023-04-21T06:51:14;7.47;;;3.70;;
78298;SDS011;67556;55.656;12.590;2023-04-21T06:53:46;6.22;;;3.75;;
78298;SDS011;67556;55.656;12.590;2023-04-21T06:56:20;4.75;;;3.90;;
78298;SDS011;67556;55.656;12.590;2023-04-21T06:58:47;5.03;;;4.22;;
78298;SDS011;67556;55.656;12.590;2023-04-21T07:01:14;5.10;;;3.88;;
78298;SDS011;67556;55.656;12.590;2023-04-21T07:03:44;5.75;;;3.58;;
78298;SDS011;67556;55.656;12.590;2023-04-21T07:06:21;6.50;;;3.97;;
78298;SDS011;67556;55.656;12.590;2023-04-21T07:08:48;5.68;;;3.78;;
78298;SDS011;67556;55.656;12.590;2023-04-21T07:11:18;4.72;;;3.67;;
78298;SDS011;67556;55.656;12.590;2023-04-21T07:13:44;7.60;;;4.93;;
78298;SDS011;67556;55.656;12.590;2023-04-21T07:16:10;6.80;;;4.07;;
78298;SDS011;67556;55.656;12.590;2023-04-21T07:18:38;5.18;;;3.65;;
78298;SDS011;67556;55.656;12.590;2023-04-21T07:21:12;4.38;;;3.70;;
78298;SDS011;67556;55.656;12.590;2023-04-21T07:23:44;5.90;;;3.67;;
78298;SDS011;67556;55.656;12.590;2023-04-21T07:26:17;7.57;;;4.15;;
78298;SDS011;67556;55.656;12.590;2023-04-21T07:28:49;5.35;;;3.65;;
78298;SDS011;67556;55.656;12.590;2023-04-21T07:31:24;4.78;;;3.65;;
78298;SDS011;67556;55.656;12.590;2023-04-21T07:34:03;5.15;;;4.03;;
78298;SDS011;67556;55.656;12.590;2023-04-21T07:36:31;6.15;;;3.63;;
78298;SDS011;67556;55.656;12.590;2023-04-21T07:38:59;3.88;;;3.35;;
78298;SDS011;67556;55.656;12.590;2023-04-21T07:41:37;5.53;;;3.92;;
78298;SDS011;67556;55.656;12.590;2023-04-21T07:44:10;5.70;;;3.63;;
78298;SDS011;67556;55.656;12.590;2023-04-21T07:46:41;5.75;;;3.65;;
78298;SDS011;67556;55.656;12.590;2023-04-21T07:49:08;6.03;;;4.30;;
78298;SDS011;67556;55.656;12.590;2023-04-21T07:51:41;6.10;;;4.13;;
78298;SDS011;67556;55.656;12.590;2023-04-21T07:54:08;4.40;;;3.85;;
78298;SDS011;67556;55.656;12.590;2023-04-21T07:56:34;5.45;;;3.70;;
78298;SDS011;67556;55.656;12.590;2023-04-21T07:59:03;5.30;;;3.47;;
78298;SDS011;67556;55.656;12.590;2023-04-21T08:01:30;6.70;;;3.83;;
78298;SDS011;67556;55.656;12.590;2023-04-21T08:04:00;7.75;;;3.85;;
78298;SDS011;67556;55.656;12.590;2023-04-21T08:06:26;4.18;;;3.75;;
78298;SDS011;67556;55.656;12.590;2023-04-21T08:08:56;5.57;;;3.40;;
78298;SDS011;67556;55.656;12.590;2023-04-21T08:11:22;5.65;;;3.83;;
78298;SDS011;67556;55.656;12.590;2023-04-21T08:13:50;5.10;;;3.90;;
78298;SDS011;67556;55.656;12.590;2023-04-21T08:16:17;7.60;;;3.65;;
78298;SDS011;67556;55.656;12.590;2023-04-21T08:18:56;4.15;;;3.40;;
78298;SDS011;67556;55.656;12.590;2023-04-21T08:21:23;5.32;;;3.47;;
78298;SDS011;67556;55.656;12.590;2023-04-21T08:23:50;4.45;;;3.42;;
78298;SDS011;67556;55.656;12.590;2023-04-21T08:26:25;4.32;;;3.53;;
78298;SDS011;67556;55.656;12.590;2023-04-21T08:28:54;6.72;;;3.33;;
78298;SDS011;67556;55.656;12.590;2023-04-21T08:31:20;5.68;;;3.60;;
78298;SDS011;67556;55.656;12.590;2023-04-21T08:33:48;5.68;;;3.50;;
78298;SDS011;67556;55.656;12.590;2023-04-21T08:36:25;5.40;;;3.13;;
78298;SDS011;67556;55.656;12.590;2023-04-21T08:38:52;5.25;;;2.78;;
78298;SDS011;67556;55.656;12.590;2023-04-21T08:41:19;7.07;;;3.17;;
78298;SDS011;67556;55.656;12.590;2023-04-21T08:43:49;3.63;;;3.00;;
78298;SDS011;67556;55.656;12.590;2023-04-21T08:46:16;4.75;;;3.30;;
78298;SDS011;67556;55.656;12.590;2023-04-21T08:48:45;4.28;;;2.95;;
78298;SDS011;67556;55.656;12.590;2023-04-21T08:51:12;5.07;;;3.10;;
78298;SDS011;67556;55.656;12.590;2023-04-21T08:53:44;4.03;;;3.03;;
78298;SDS011;67556;55.656;12.590;2023-04-21T08:56:10;4.82;;;3.50;;
78298;SDS011;67556;55.656;12.590;2023-04-21T08:58:51;5.03;;;3.30;;
78298;SDS011;67556;55.656;12.590;2023-04-21T09:01:17;6.75;;;3.90;;
78298;SDS011;67556;55.656;12.590;2023-04-21T09:03:44;3.92;;;3.30;;
78298;SDS011;67556;55.656;12.590;2023-04-21T09:06:16;3.67;;;2.72;;
78298;SDS011;67556;55.656;12.590;2023-04-21T09:08:51;3.45;;;2.95;;
78298;SDS011;67556;55.656;12.590;2023-04-21T09:11:26;6.90;;;3.10;;
78298;SDS011;67556;55.656;12.590;2023-04-21T09:14:06;4.95;;;2.78;;
78298;SDS011;67556;55.656;12.590;2023-04-21T09:16:35;6.88;;;3.70;;
78298;SDS011;67556;55.656;12.590;2023-04-21T09:19:12;4.15;;;2.92;;
78298;SDS011;67556;55.656;12.590;2023-04-21T09:21:41;4.53;;;2.85;;
78298;SDS011;67556;55.656;12.590;2023-04-21T09:24:10;4.15;;;3.05;;
78298;SDS011;67556;55.656;12.590;2023-04-21T09:26:37;4.32;;;3.20;;
78298;SDS011;67556;55.656;12.590;2023-04-21T09:29:04;4.13;;;3.15;;
78298;SDS011;67556;55.656;12.590;2023-04-21T09:31:38;6.03;;;3.22;;
78298;SDS011;67556;55.656;12.590;2023-04-21T09:34:15;4.43;;;2.88;;
78298;SDS011;67556;55.656;12.590;2023-04-21T09:36:58;8.32;;;3.15;;
78298;SDS011;67556;55.656;12.590;2023-04-21T09:39:27;3.75;;;2.85;;
78298;SDS011;67556;55.656;12.590;2023-04-21T09:41:54;2.83;;;2.50;;
78298;SDS011;67556;55.656;12.590;2023-04-21T09:44:23;3.25;;;2.83;;
78298;SDS011;67556;55.656;12.590;2023-04-21T09:46:53;5.00;;;2.72;;
78298;SDS011;67556;55.656;12.590;2023-04-21T09:49:29;3.50;;;2.75;;
78298;SDS011;67556;55.656;12.590;2023-04-21T09:52:00;3.97;;;2.63;;
78298;SDS011;67556;55.656;12.590;2023-04-21T09:54:33;4.45;;;2.70;;
78298;SDS011;67556;55.656;12.590;2023-04-21T09:57:03;3.80;;;2.47;;
78298;SDS011;67556;55.656;12.590;2023-04-21T09:59:35;3.10;;;2.50;;
78298;SDS011;67556;55.656;12.590;2023-04-21T10:02:06;4.07;;;2.67;;
78298;SDS011;67556;55.656;12.590;2023-04-21T10:04:33;7.72;;;3.20;;
78298;SDS011;67556;55.656;12.590;2023-04-21T10:07:08;4.38;;;2.65;;
78298;SDS011;67556;55.656;12.590;2023-04-21T10:09:40;3.67;;;2.40;;
78298;SDS011;67556;55.656;12.590;2023-04-21T10:12:12;3.35;;;2.40;;
78298;SDS011;67556;55.656;12.590;2023-04-21T10:14:39;3.90;;;2.97;;
78298;SDS011;67556;55.656;12.590;2023-04-21T10:17:07;4.05;;;2.75;;
78298;SDS011;67556;55.656;12.590;2023-04-21T10:19:36;6.05;;;2.53;;
78298;SDS011;67556;55.656;12.590;2023-04-21T10:22:12;3.25;;;2.33;;
78298;SDS011;67556;55.656;12.590;2023-04-21T10:24:41;3.70;;;2.63;;
78298;SDS011;67556;55.656;12.590;2023-04-21T10:27:10;3.65;;;2.67;;
78298;SDS011;67556;55.656;12.590;2023-04-21T10:29:45;4.28;;;2.65;;
78298;SDS011;67556;55.656;12.590;2023-04-21T10:32:13;3.58;;;2.60;;
78298;SDS011;67556;55.656;12.590;2023-04-21T10:35:02;5.05;;;3.03;;
78298;SDS011;67556;55.656;12.590;2023-04-21T10:37:30;3.58;;;2.42;;
78298;SDS011;67556;55.656;12.590;2023-04-21T10:39:59;4.45;;;2.30;;
78298;SDS011;67556;55.656;12.590;2023-04-21T10:42:27;3.67;;;2.40;;
78298;SDS011;67556;55.656;12.590;2023-04-21T10:45:00;3.00;;;2.60;;
78298;SDS011;67556;55.656;12.590;2023-04-21T10:47:40;6.93;;;3.10;;
78298;SDS011;67556;55.656;12.590;2023-04-21T10:50:16;3.80;;;2.50;;
78298;SDS011;67556;55.656;12.590;2023-04-21T10:52:45;3.58;;;2.60;;
78298;SDS011;67556;55.656;12.590;2023-04-21T10:55:31;6.20;;;2.72;;
78298;SDS011;67556;55.656;12.590;2023-04-21T10:58:05;3.35;;;2.70;;
78298;SDS011;67556;55.656;12.590;2023-04-21T11:00:39;7.95;;;2.63;;
78298;SDS011;67556;55.656;12.590;2023-04-21T11:03:23;5.60;;;2.92;;
78298;SDS011;67556;55.656;12.590;2023-04-21T11:05:50;3.90;;;2.80;;
78298;SDS011;67556;55.656;12.590;2023-04-21T11:08:25;4.97;;;2.53;;
78298;SDS011;67556;55.656;12.590;2023-04-21T11:11:05;5.82;;;2.90;;
78298;SDS011;67556;55.656;12.590;2023-04-21T11:13:31;3.75;;;2.40;;
78298;SDS011;67556;55.656;12.590;2023-04-21T11:16:09;5.30;;;2.78;;
78298;SDS011;67556;55.656;12.590;2023-04-21T11:21:14;3.95;;;2.38;;
78298;SDS011;67556;55.656;12.590;2023-04-21T11:23:52;4.10;;;2.35;;
78298;SDS011;67556;55.656;12.590;2023-04-21T11:26:31;5.63;;;2.55;;
78298;SDS011;67556;55.656;12.590;2023-04-21T11:29:02;4.60;;;2.67;;
78298;SDS011;67556;55.656;12.590;2023-04-21T11:31:30;6.25;;;2.60;;
78298;SDS011;67556;55.656;12.590;2023-04-21T11:33:59;3.45;;;2.83;;
78298;SDS011;67556;55.656;12.590;2023-04-21T11:36:38;5.07;;;2.70;;
78298;SDS011;67556;55.656;12.590;2023-04-21T11:39:05;3.67;;;2.85;;
78298;SDS011;67556;55.656;12.590;2023-04-21T11:41:35;2.47;;;2.28;;
78298;SDS011;67556;55.656;12.590;2023-04-21T11:44:12;6.32;;;2.88;;
78298;SDS011;67556;55.656;12.590;2023-04-21T11:46:43;6.40;;;3.75;;
78298;SDS011;67556;55.656;12.590;2023-04-21T11:49:14;4.47;;;2.80;;
78298;SDS011;67556;55.656;12.590;2023-04-21T11:51:52;5.30;;;2.80;;
78298;SDS011;67556;55.656;12.590;2023-04-21T11:54:18;4.15;;;2.67;;
78298;SDS011;67556;55.656;12.590;2023-04-21T11:56:46;3.75;;;2.80;;
78298;SDS011;67556;55.656;12.590;2023-04-21T11:59:13;3.97;;;2.58;;
78298;SDS011;67556;55.656;12.590;2023-04-21T12:01:42;3.95;;;2.70;;
78298;SDS011;67556;55.656;12.590;2023-04-21T12:04:12;3.97;;;3.30;;
78298;SDS011;67556;55.656;12.590;2023-04-21T12:06:41;8.27;;;2.92;;
78298;SDS011;67556;55.656;12.590;2023-04-21T12:09:14;4.28;;;3.05;;
78298;SDS011;67556;55.656;12.590;2023-04-21T12:11:45;3.78;;;2.60;;
78298;SDS011;67556;55.656;12.590;2023-04-21T12:14:20;3.60;;;2.75;;
78298;SDS011;67556;55.656;12.590;2023-04-21T12:16:56;4.80;;;3.60;;
78298;SDS011;67556;55.656;12.590;2023-04-21T12:19:23;3.20;;;2.53;;
78298;SDS011;67556;55.656;12.590;2023-04-21T12:22:05;3.45;;;2.90;;
78298;SDS011;67556;55.656;12.590;2023-04-21T12:24:33;5.30;;;2.80;;
78298;SDS011;67556;55.656;12.590;2023-04-21T12:26:59;4.88;;;3.00;;
78298;SDS011;67556;55.656;12.590;2023-04-21T12:29:26;5.10;;;2.50;;
78298;SDS011;67556;55.656;12.590;2023-04-21T12:31:53;3.60;;;2.78;;
78298;SDS011;67556;55.656;12.590;2023-04-21T12:34:26;4.38;;;2.35;;
78298;SDS011;67556;55.656;12.590;2023-04-21T12:36:52;3.63;;;2.50;;
78298;SDS011;67556;55.656;12.590;2023-04-21T12:39:26;3.88;;;2.58;;
78298;SDS011;67556;55.656;12.590;2023-04-21T12:41:53;5.10;;;2.80;;
78298;SDS011;67556;55.656;12.590;2023-04-21T12:44:20;4.05;;;2.67;;
78298;SDS011;67556;55.656;12.590;2023-04-21T12:46:47;6.30;;;2.80;;
78298;SDS011;67556;55.656;12.590;2023-04-21T12:49:32;4.97;;;2.78;;
78298;SDS011;67556;55.656;12.590;2023-04-21T12:51:59;3.65;;;2.80;;
78298;SDS011;67556;55.656;12.590;2023-04-21T12:54:27;3.47;;;2.78;;
78298;SDS011;67556;55.656;12.590;2023-04-21T12:57:12;4.40;;;2.90;;
78298;SDS011;67556;55.656;12.590;2023-04-21T12:59:39;3.70;;;2.60;;
78298;SDS011;67556;55.656;12.590;2023-04-21T13:02:24;5.80;;;2.70;;
78298;SDS011;67556;55.656;12.590;2023-04-21T13:05:16;5.70;;;3.10;;
78298;SDS011;67556;55.656;12.590;2023-04-21T13:07:45;5.90;;;3.40;;
78298;SDS011;67556;55.656;12.590;2023-04-21T13:10:31;6.03;;;3.00;;
78298;SDS011;67556;55.656;12.590;2023-04-21T13:13:00;7.20;;;2.72;;
78298;SDS011;67556;55.656;12.590;2023-04-21T13:15:44;4.78;;;3.03;;
78298;SDS011;67556;55.656;12.590;2023-04-21T13:18:12;3.70;;;2.70;;
78298;SDS011;67556;55.656;12.590;2023-04-21T13:20:41;8.70;;;3.83;;
78298;SDS011;67556;55.656;12.590;2023-04-21T13:23:09;3.72;;;3.00;;
78298;SDS011;67556;55.656;12.590;2023-04-21T13:25:58;4.38;;;2.63;;
78298;SDS011;67556;55.656;12.590;2023-04-21T13:28:25;9.77;;;2.63;;
78298;SDS011;67556;55.656;12.590;2023-04-21T13:31:10;5.13;;;2.70;;
78298;SDS011;67556;55.656;12.590;2023-04-21T13:33:38;4.05;;;2.70;;
78298;SDS011;67556;55.656;12.590;2023-04-21T13:36:21;4.55;;;2.80;;
78298;SDS011;67556;55.656;12.590;2023-04-21T13:39:07;4.65;;;2.80;;
78298;SDS011;67556;55.656;12.590;2023-04-21T13:41:54;3.92;;;3.03;;
78298;SDS011;67556;55.656;12.590;2023-04-21T13:44:23;5.45;;;2.70;;
78298;SDS011;67556;55.656;12.590;2023-04-21T13:47:08;4.65;;;2.90;;
78298;SDS011;67556;55.656;12.590;2023-04-21T13:49:34;5.82;;;3.08;;
78298;SDS011;67556;55.656;12.590;2023-04-21T13:52:20;4.57;;;3.13;;
78298;SDS011;67556;55.656;12.590;2023-04-21T13:54:47;4.10;;;3.00;;
78298;SDS011;67556;55.656;12.590;2023-04-21T13:57:15;4.70;;;2.83;;
78298;SDS011;67556;55.656;12.590;2023-04-21T14:00:00;3.42;;;2.38;;
78298;SDS011;67556;55.656;12.590;2023-04-21T14:02:27;5.57;;;2.97;;
78298;SDS011;67556;55.656;12.590;2023-04-21T14:04:54;4.82;;;3.10;;
78298;SDS011;67556;55.656;12.590;2023-04-21T14:07:40;3.55;;;2.50;;
78298;SDS011;67556;55.656;12.590;2023-04-21T14:10:08;5.35;;;2.92;;
78298;SDS011;67556;55.656;12.590;2023-04-21T14:12:55;3.85;;;2.30;;
78298;SDS011;67556;55.656;12.590;2023-04-21T14:15:22;3.78;;;2.50;;
78298;SDS011;67556;55.656;12.590;2023-04-21T14:18:07;3.30;;;2.50;;
78298;SDS011;67556;55.656;12.590;2023-04-21T14:20:33;3.20;;;2.63;;
78298;SDS011;67556;55.656;12.590;2023-04-21T14:23:18;2.80;;;2.40;;
78298;SDS011;67556;55.656;12.590;2023-04-21T14:25:45;5.40;;;2.85;;
78298;SDS011;67556;55.656;12.590;2023-04-21T14:28:14;5.78;;;2.80;;
78298;SDS011;67556;55.656;12.590;2023-04-21T14:30:59;4.40;;;2.53;;
78298;SDS011;67556;55.656;12.590;2023-04-21T14:33:25;3.65;;;2.55;;
78298;SDS011;67556;55.656;12.590;2023-04-21T14:36:11;5.68;;;2.50;;
78298;SDS011;67556;55.656;12.590;2023-04-21T14:38:38;5.70;;;2.78;;
78298;SDS011;67556;55.656;12.590;2023-04-21T14:41:09;4.05;;;2.38;;
78298;SDS011;67556;55.656;12.590;2023-04-21T14:43:41;4.05;;;2.70;;
78298;SDS011;67556;55.656;12.590;2023-04-21T14:46:26;3.65;;;2.42;;
78298;SDS011;67556;55.656;12.590;2023-04-21T14:48:53;3.80;;;2.40;;
78298;SDS011;67556;55.656;12.590;2023-04-21T14:51:28;4.97;;;2.70;;
78298;SDS011;67556;55.656;12.590;2023-04-21T14:54:14;2.97;;;2.50;;
78298;SDS011;67556;55.656;12.590;2023-04-21T14:56:40;5.18;;;2.78;;
78298;SDS011;67556;55.656;12.590;2023-04-21T14:59:09;3.90;;;2.30;;
78298;SDS011;67556;55.656;12.590;2023-04-21T15:01:50;4.38;;;2.50;;
78298;SDS011;67556;55.656;12.590;2023-04-21T15:04:24;3.53;;;2.60;;